Pagina principale
METAR-TAF:

METAR-TAF

Aeroporti :

Aeroporto di Treviso-Sant'Angelo

Treviso, Italia

latitudine: 45-39N, longitudine: 012-11E, altezza: 18 m

Osservazione

Il bollettino è stato emesso 33 minuti fa, alle 23:50 UTC
Vento 1 kt da direzioni variabili
Temperature 13°C
Umidità 100%
Pressione 1006 hPa
Visibilità 10 km o più

METAR: LIPH 152350Z AUTO VRB01KT 9999 NCD 13/13 Q1006

Ora: 02:23 (00:23 UTC)

Previsione

Il bollettino è stato emesso 1 ora e 23 minuti fa, alle 23:00 UTC
Previsione valida dal 16 alle 00 UTC al 16 alle 24 UTC
Vento 5 kt da direzioni variabili
Visibilità 10 km o più
Nubi sparse ad un'altezza di 6000 ft
Temporaneamente
dal 16 alle 14 UTC al 16 alle 20 UTC
rovesci di pioggia

TAF: LIPH 152300Z 1600/1624 VRB05KT 9999 SCT060 TEMPO 1614/1620 SHRA

Osservazioni e previsioni meteorologiche di più di 4000 aeroporti (messaggi METAR e TAF).

Le stazioni disponibili sono rappresentate dai dischi gialli e rossi sulla carta.

Puntare il mouse per vedere il nome della stazione.

Clicca sopra per visualizzare le osservazioni e previsioni meteorologiche.

Per cambiare la mappa : fare clic sui pulsanti verdi con una croce nera per ingrandire, il pulsante verde con un trattino per diminuire, o sulla freccia verde per le mappe adiacenti.


METAR-TAF: